sensor_id;sensor_type;location;lat;lon;timestamp;temperature;humidity
5705;DHT22;2877;48.238;11.160;2023-06-04T00:02:12;12.10;99.90
5705;DHT22;2877;48.238;11.160;2023-06-04T00:04:38;12.10;99.90
5705;DHT22;2877;48.238;11.160;2023-06-04T00:07:04;12.10;99.90
5705;DHT22;2877;48.238;11.160;2023-06-04T00:09:30;12.00;99.90
5705;DHT22;2877;48.238;11.160;2023-06-04T00:11:55;11.90;99.90
5705;DHT22;2877;48.238;11.160;2023-06-04T00:14:21;11.90;99.90
5705;DHT22;2877;48.238;11.160;2023-06-04T00:16:47;11.90;99.90
5705;DHT22;2877;48.238;11.160;2023-06-04T00:19:12;11.80;99.90
5705;DHT22;2877;48.238;11.160;2023-06-04T00:21:38;11.80;99.90
5705;DHT22;2877;48.238;11.160;2023-06-04T00:24:03;11.80;99.90
5705;DHT22;2877;48.238;11.160;2023-06-04T00:26:29;11.70;99.90
5705;DHT22;2877;48.238;11.160;2023-06-04T00:28:55;11.70;99.90
5705;DHT22;2877;48.238;11.160;2023-06-04T00:31:20;11.60;99.90
5705;DHT22;2877;48.238;11.160;2023-06-04T00:33:49;11.50;99.90
5705;DHT22;2877;48.238;11.160;2023-06-04T00:36:15;11.40;99.90
5705;DHT22;2877;48.238;11.160;2023-06-04T00:38:40;11.40;99.90
5705;DHT22;2877;48.238;11.160;2023-06-04T00:41:06;11.20;99.90
5705;DHT22;2877;48.238;11.160;2023-06-04T00:43:31;11.20;99.90
5705;DHT22;2877;48.238;11.160;2023-06-04T00:45:58;11.10;99.90
5705;DHT22;2877;48.238;11.160;2023-06-04T00:48:25;11.10;99.90
5705;DHT22;2877;48.238;11.160;2023-06-04T00:50:53;11.00;99.90
5705;DHT22;2877;48.238;11.160;2023-06-04T00:53:23;11.00;99.90
5705;DHT22;2877;48.238;11.160;2023-06-04T00:55:49;10.90;99.90
5705;DHT22;2877;48.238;11.160;2023-06-04T00:58:14;10.90;99.90
5705;DHT22;2877;48.238;11.160;2023-06-04T01:00:44;10.80;99.90
5705;DHT22;2877;48.238;11.160;2023-06-04T01:03:15;10.80;99.90
5705;DHT22;2877;48.238;11.160;2023-06-04T01:08:27;10.70;99.90
5705;DHT22;2877;48.238;11.160;2023-06-04T01:10:54;10.70;99.90
5705;DHT22;2877;48.238;11.160;2023-06-04T01:13:20;10.60;99.90
5705;DHT22;2877;48.238;11.160;2023-06-04T01:15:46;10.70;99.90
5705;DHT22;2877;48.238;11.160;2023-06-04T01:18:15;10.70;99.90
5705;DHT22;2877;48.238;11.160;2023-06-04T01:21:00;10.70;99.90
5705;DHT22;2877;48.238;11.160;2023-06-04T01:26:03;10.60;99.90
5705;DHT22;2877;48.238;11.160;2023-06-04T01:28:30;10.60;99.90
5705;DHT22;2877;48.238;11.160;2023-06-04T01:30:56;10.50;99.90
5705;DHT22;2877;48.238;11.160;2023-06-04T01:33:22;10.50;99.90
5705;DHT22;2877;48.238;11.160;2023-06-04T01:35:49;10.40;99.90
5705;DHT22;2877;48.238;11.160;2023-06-04T01:38:15;10.40;99.90
5705;DHT22;2877;48.238;11.160;2023-06-04T01:40:41;10.50;99.90
5705;DHT22;2877;48.238;11.160;2023-06-04T01:43:07;10.40;99.90
5705;DHT22;2877;48.238;11.160;2023-06-04T01:45:32;10.30;99.90
5705;DHT22;2877;48.238;11.160;2023-06-04T01:48:01;10.30;99.90
5705;DHT22;2877;48.238;11.160;2023-06-04T01:50:26;10.20;99.90
5705;DHT22;2877;48.238;11.160;2023-06-04T01:52:53;10.10;99.90
5705;DHT22;2877;48.238;11.160;2023-06-04T01:55:18;10.10;99.90
5705;DHT22;2877;48.238;11.160;2023-06-04T01:57:45;10.10;99.90
5705;DHT22;2877;48.238;11.160;2023-06-04T02:00:12;10.10;99.90
5705;DHT22;2877;48.238;11.160;2023-06-04T02:02:38;10.00;99.90
5705;DHT22;2877;48.238;11.160;2023-06-04T02:05:07;10.00;99.90
5705;DHT22;2877;48.238;11.160;2023-06-04T02:07:36;9.90;99.90
5705;DHT22;2877;48.238;11.160;2023-06-04T02:10:10;9.90;99.90
5705;DHT22;2877;48.238;11.160;2023-06-04T02:12:38;9.90;99.90
5705;DHT22;2877;48.238;11.160;2023-06-04T02:15:04;9.90;99.90
5705;DHT22;2877;48.238;11.160;2023-06-04T02:17:30;9.70;99.90
5705;DHT22;2877;48.238;11.160;2023-06-04T02:19:58;9.70;99.90
5705;DHT22;2877;48.238;11.160;2023-06-04T02:22:24;9.70;99.90
5705;DHT22;2877;48.238;11.160;2023-06-04T02:24:50;9.60;99.90
5705;DHT22;2877;48.238;11.160;2023-06-04T02:27:16;9.50;99.90
5705;DHT22;2877;48.238;11.160;2023-06-04T02:29:41;9.50;99.90
5705;DHT22;2877;48.238;11.160;2023-06-04T02:32:07;9.50;99.90
5705;DHT22;2877;48.238;11.160;2023-06-04T02:34:34;9.50;99.90
5705;DHT22;2877;48.238;11.160;2023-06-04T02:37:00;9.60;99.90
5705;DHT22;2877;48.238;11.160;2023-06-04T02:39:25;9.60;99.90
5705;DHT22;2877;48.238;11.160;2023-06-04T02:41:51;9.70;99.90
5705;DHT22;2877;48.238;11.160;2023-06-04T02:44:16;9.60;99.90
5705;DHT22;2877;48.238;11.160;2023-06-04T02:46:42;9.60;99.90
5705;DHT22;2877;48.238;11.160;2023-06-04T02:49:09;9.60;99.90
5705;DHT22;2877;48.238;11.160;2023-06-04T02:51:34;9.50;99.90
5705;DHT22;2877;48.238;11.160;2023-06-04T02:54:00;9.50;99.90
5705;DHT22;2877;48.238;11.160;2023-06-04T02:56:25;9.50;99.90
5705;DHT22;2877;48.238;11.160;2023-06-04T02:58:52;9.50;99.90
5705;DHT22;2877;48.238;11.160;2023-06-04T03:01:22;9.50;99.90
5705;DHT22;2877;48.238;11.160;2023-06-04T03:03:48;9.50;99.90
5705;DHT22;2877;48.238;11.160;2023-06-04T03:06:15;9.40;99.90
5705;DHT22;2877;48.238;11.160;2023-06-04T03:08:42;9.30;99.90
5705;DHT22;2877;48.238;11.160;2023-06-04T03:11:08;9.40;99.90
5705;DHT22;2877;48.238;11.160;2023-06-04T03:13:33;9.40;99.90
5705;DHT22;2877;48.238;11.160;2023-06-04T03:15:59;9.40;99.90
5705;DHT22;2877;48.238;11.160;2023-06-04T03:18:30;9.40;99.90
5705;DHT22;2877;48.238;11.160;2023-06-04T03:20:56;9.30;99.90
5705;DHT22;2877;48.238;11.160;2023-06-04T03:23:22;9.20;99.90
5705;DHT22;2877;48.238;11.160;2023-06-04T03:25:48;9.20;99.90
5705;DHT22;2877;48.238;11.160;2023-06-04T03:28:13;9.20;99.90
5705;DHT22;2877;48.238;11.160;2023-06-04T03:30:40;9.20;99.90
5705;DHT22;2877;48.238;11.160;2023-06-04T03:33:06;9.20;99.90
5705;DHT22;2877;48.238;11.160;2023-06-04T03:35:33;9.30;99.90
5705;DHT22;2877;48.238;11.160;2023-06-04T03:37:58;9.30;99.90
5705;DHT22;2877;48.238;11.160;2023-06-04T03:40:24;9.40;99.90
5705;DHT22;2877;48.238;11.160;2023-06-04T03:42:49;9.40;99.90
5705;DHT22;2877;48.238;11.160;2023-06-04T03:45:15;9.40;99.90
5705;DHT22;2877;48.238;11.160;2023-06-04T03:47:40;9.40;99.90
5705;DHT22;2877;48.238;11.160;2023-06-04T03:50:06;9.40;99.90
5705;DHT22;2877;48.238;11.160;2023-06-04T03:52:32;9.40;99.90
5705;DHT22;2877;48.238;11.160;2023-06-04T03:54:58;9.50;99.90
5705;DHT22;2877;48.238;11.160;2023-06-04T03:57:24;9.50;99.90
5705;DHT22;2877;48.238;11.160;2023-06-04T03:59:50;9.50;99.90
5705;DHT22;2877;48.238;11.160;2023-06-04T04:02:15;9.50;99.90
5705;DHT22;2877;48.238;11.160;2023-06-04T04:04:43;9.60;99.90
5705;DHT22;2877;48.238;11.160;2023-06-04T04:07:09;9.60;99.90
5705;DHT22;2877;48.238;11.160;2023-06-04T04:09:36;9.60;99.90
5705;DHT22;2877;48.238;11.160;2023-06-04T04:12:02;9.70;99.90
5705;DHT22;2877;48.238;11.160;2023-06-04T04:14:28;9.80;99.90
5705;DHT22;2877;48.238;11.160;2023-06-04T04:16:54;9.80;99.90
5705;DHT22;2877;48.238;11.160;2023-06-04T04:19:19;9.80;99.90
5705;DHT22;2877;48.238;11.160;2023-06-04T04:21:46;9.90;99.90
5705;DHT22;2877;48.238;11.160;2023-06-04T04:24:22;9.90;99.90
5705;DHT22;2877;48.238;11.160;2023-06-04T04:26:48;10.00;99.90
5705;DHT22;2877;48.238;11.160;2023-06-04T04:29:14;10.10;99.90
5705;DHT22;2877;48.238;11.160;2023-06-04T04:31:39;10.30;99.90
5705;DHT22;2877;48.238;11.160;2023-06-04T04:34:07;10.40;99.90
5705;DHT22;2877;48.238;11.160;2023-06-04T04:36:34;10.40;99.90
5705;DHT22;2877;48.238;11.160;2023-06-04T04:39:01;10.50;99.90
5705;DHT22;2877;48.238;11.160;2023-06-04T04:41:27;10.60;99.90
5705;DHT22;2877;48.238;11.160;2023-06-04T04:43:53;10.70;99.90
5705;DHT22;2877;48.238;11.160;2023-06-04T04:46:19;10.80;99.90
5705;DHT22;2877;48.238;11.160;2023-06-04T04:48:44;10.90;99.90
5705;DHT22;2877;48.238;11.160;2023-06-04T04:51:10;10.90;99.90
5705;DHT22;2877;48.238;11.160;2023-06-04T04:53:36;11.00;99.90
5705;DHT22;2877;48.238;11.160;2023-06-04T04:56:01;11.10;99.90
5705;DHT22;2877;48.238;11.160;2023-06-04T04:58:27;11.20;99.90
5705;DHT22;2877;48.238;11.160;2023-06-04T05:00:52;11.30;99.90
5705;DHT22;2877;48.238;11.160;2023-06-04T05:03:18;11.40;99.90
5705;DHT22;2877;48.238;11.160;2023-06-04T05:05:43;11.50;99.90
5705;DHT22;2877;48.238;11.160;2023-06-04T05:08:09;11.60;99.90
5705;DHT22;2877;48.238;11.160;2023-06-04T05:10:34;11.70;99.90
5705;DHT22;2877;48.238;11.160;2023-06-04T05:13:01;11.90;99.90
5705;DHT22;2877;48.238;11.160;2023-06-04T05:15:27;12.00;99.90
5705;DHT22;2877;48.238;11.160;2023-06-04T05:17:53;12.10;99.90
5705;DHT22;2877;48.238;11.160;2023-06-04T05:20:22;12.20;99.90
5705;DHT22;2877;48.238;11.160;2023-06-04T05:22:48;12.30;99.90
5705;DHT22;2877;48.238;11.160;2023-06-04T05:25:14;12.40;99.90
5705;DHT22;2877;48.238;11.160;2023-06-04T05:27:40;12.50;99.90
5705;DHT22;2877;48.238;11.160;2023-06-04T05:30:06;12.60;99.90
5705;DHT22;2877;48.238;11.160;2023-06-04T05:32:32;12.70;99.90
5705;DHT22;2877;48.238;11.160;2023-06-04T05:34:58;12.90;99.90
5705;DHT22;2877;48.238;11.160;2023-06-04T05:37:27;13.00;99.90
5705;DHT22;2877;48.238;11.160;2023-06-04T05:39:56;13.10;99.90
5705;DHT22;2877;48.238;11.160;2023-06-04T05:42:23;13.20;99.90
5705;DHT22;2877;48.238;11.160;2023-06-04T05:44:49;13.30;99.90
5705;DHT22;2877;48.238;11.160;2023-06-04T05:47:15;13.40;99.90
5705;DHT22;2877;48.238;11.160;2023-06-04T05:49:42;13.50;99.90
5705;DHT22;2877;48.238;11.160;2023-06-04T05:52:07;13.70;99.90
5705;DHT22;2877;48.238;11.160;2023-06-04T05:54:33;13.90;99.90
5705;DHT22;2877;48.238;11.160;2023-06-04T05:56:58;14.10;99.90
5705;DHT22;2877;48.238;11.160;2023-06-04T05:59:24;14.20;99.90
5705;DHT22;2877;48.238;11.160;2023-06-04T06:01:50;14.40;99.90
5705;DHT22;2877;48.238;11.160;2023-06-04T06:04:15;14.50;99.90
5705;DHT22;2877;48.238;11.160;2023-06-04T06:06:42;14.70;99.90
5705;DHT22;2877;48.238;11.160;2023-06-04T06:09:14;14.90;99.90
5705;DHT22;2877;48.238;11.160;2023-06-04T06:11:41;14.90;99.90
5705;DHT22;2877;48.238;11.160;2023-06-04T06:14:06;15.00;99.90
5705;DHT22;2877;48.238;11.160;2023-06-04T06:16:32;15.00;99.90
5705;DHT22;2877;48.238;11.160;2023-06-04T06:18:58;15.00;99.90
5705;DHT22;2877;48.238;11.160;2023-06-04T06:21:24;15.10;99.90
5705;DHT22;2877;48.238;11.160;2023-06-04T06:23:51;15.20;99.90
5705;DHT22;2877;48.238;11.160;2023-06-04T06:26:16;15.30;99.90
5705;DHT22;2877;48.238;11.160;2023-06-04T06:28:42;15.30;99.90
5705;DHT22;2877;48.238;11.160;2023-06-04T06:31:08;15.40;99.90
5705;DHT22;2877;48.238;11.160;2023-06-04T06:33:33;15.50;99.90
5705;DHT22;2877;48.238;11.160;2023-06-04T06:35:59;15.70;99.90
5705;DHT22;2877;48.238;11.160;2023-06-04T06:38:27;15.70;99.90
5705;DHT22;2877;48.238;11.160;2023-06-04T06:40:53;15.80;99.90
5705;DHT22;2877;48.238;11.160;2023-06-04T06:43:19;15.90;99.90
5705;DHT22;2877;48.238;11.160;2023-06-04T06:45:45;16.10;99.90
5705;DHT22;2877;48.238;11.160;2023-06-04T06:48:10;16.10;99.90
5705;DHT22;2877;48.238;11.160;2023-06-04T06:50:36;16.20;99.00
5705;DHT22;2877;48.238;11.160;2023-06-04T06:53:02;16.40;98.30
5705;DHT22;2877;48.238;11.160;2023-06-04T06:55:28;16.40;98.30
5705;DHT22;2877;48.238;11.160;2023-06-04T06:57:53;16.50;98.10
5705;DHT22;2877;48.238;11.160;2023-06-04T07:00:19;16.60;97.80
5705;DHT22;2877;48.238;11.160;2023-06-04T07:02:44;16.80;98.00
5705;DHT22;2877;48.238;11.160;2023-06-04T07:05:11;16.90;97.10
5705;DHT22;2877;48.238;11.160;2023-06-04T07:07:36;17.00;96.50
5705;DHT22;2877;48.238;11.160;2023-06-04T07:10:02;17.10;96.50
5705;DHT22;2877;48.238;11.160;2023-06-04T07:12:29;17.10;95.90
5705;DHT22;2877;48.238;11.160;2023-06-04T07:14:55;17.20;96.00
5705;DHT22;2877;48.238;11.160;2023-06-04T07:17:21;17.30;95.60
5705;DHT22;2877;48.238;11.160;2023-06-04T07:19:47;17.40;95.10
5705;DHT22;2877;48.238;11.160;2023-06-04T07:22:12;17.40;94.60
5705;DHT22;2877;48.238;11.160;2023-06-04T07:24:41;17.50;94.30
5705;DHT22;2877;48.238;11.160;2023-06-04T07:27:13;17.50;94.00
5705;DHT22;2877;48.238;11.160;2023-06-04T07:29:39;17.60;93.90
5705;DHT22;2877;48.238;11.160;2023-06-04T07:32:06;17.80;93.10
5705;DHT22;2877;48.238;11.160;2023-06-04T07:34:32;17.80;93.00
5705;DHT22;2877;48.238;11.160;2023-06-04T07:36:58;18.00;93.20
5705;DHT22;2877;48.238;11.160;2023-06-04T07:39:25;18.10;92.80
5705;DHT22;2877;48.238;11.160;2023-06-04T07:41:50;18.30;92.70
5705;DHT22;2877;48.238;11.160;2023-06-04T07:44:16;18.50;92.60
5705;DHT22;2877;48.238;11.160;2023-06-04T07:46:41;18.70;92.50
5705;DHT22;2877;48.238;11.160;2023-06-04T07:49:08;18.90;92.20
5705;DHT22;2877;48.238;11.160;2023-06-04T07:51:33;19.00;91.50
5705;DHT22;2877;48.238;11.160;2023-06-04T07:54:00;19.10;90.00
5705;DHT22;2877;48.238;11.160;2023-06-04T07:56:26;19.10;90.70
5705;DHT22;2877;48.238;11.160;2023-06-04T07:58:52;19.10;91.10
5705;DHT22;2877;48.238;11.160;2023-06-04T08:01:17;19.20;90.30
5705;DHT22;2877;48.238;11.160;2023-06-04T08:03:43;19.20;90.80
5705;DHT22;2877;48.238;11.160;2023-06-04T08:06:09;19.30;90.70
5705;DHT22;2877;48.238;11.160;2023-06-04T08:08:35;19.40;90.10
5705;DHT22;2877;48.238;11.160;2023-06-04T08:11:00;19.70;90.50
5705;DHT22;2877;48.238;11.160;2023-06-04T08:13:26;20.00;88.50
5705;DHT22;2877;48.238;11.160;2023-06-04T08:15:51;20.00;87.10
5705;DHT22;2877;48.238;11.160;2023-06-04T08:18:17;20.00;87.10
5705;DHT22;2877;48.238;11.160;2023-06-04T08:20:43;20.20;86.80
5705;DHT22;2877;48.238;11.160;2023-06-04T08:23:08;20.20;85.60
5705;DHT22;2877;48.238;11.160;2023-06-04T08:25:34;20.20;84.00
5705;DHT22;2877;48.238;11.160;2023-06-04T08:27:59;20.40;84.40
5705;DHT22;2877;48.238;11.160;2023-06-04T08:30:25;20.50;83.40
5705;DHT22;2877;48.238;11.160;2023-06-04T08:32:52;20.60;82.70
5705;DHT22;2877;48.238;11.160;2023-06-04T08:35:18;20.80;81.90
5705;DHT22;2877;48.238;11.160;2023-06-04T08:37:43;20.80;80.60
5705;DHT22;2877;48.238;11.160;2023-06-04T08:40:09;20.70;81.10
5705;DHT22;2877;48.238;11.160;2023-06-04T08:42:42;20.80;81.50
5705;DHT22;2877;48.238;11.160;2023-06-04T08:45:11;20.80;81.00
5705;DHT22;2877;48.238;11.160;2023-06-04T08:47:44;20.90;80.20
5705;DHT22;2877;48.238;11.160;2023-06-04T08:50:20;20.90;79.80
5705;DHT22;2877;48.238;11.160;2023-06-04T08:52:46;21.00;80.90
5705;DHT22;2877;48.238;11.160;2023-06-04T08:55:13;21.30;80.30
5705;DHT22;2877;48.238;11.160;2023-06-04T08:57:40;21.40;79.10
5705;DHT22;2877;48.238;11.160;2023-06-04T09:00:06;21.50;78.30
5705;DHT22;2877;48.238;11.160;2023-06-04T09:02:38;21.50;78.20
5705;DHT22;2877;48.238;11.160;2023-06-04T09:05:05;21.40;76.70
5705;DHT22;2877;48.238;11.160;2023-06-04T09:07:35;21.50;77.90
5705;DHT22;2877;48.238;11.160;2023-06-04T09:10:02;21.60;77.50
5705;DHT22;2877;48.238;11.160;2023-06-04T09:12:30;21.50;77.10
5705;DHT22;2877;48.238;11.160;2023-06-04T09:14:55;21.60;77.00
5705;DHT22;2877;48.238;11.160;2023-06-04T09:17:22;21.90;74.40
5705;DHT22;2877;48.238;11.160;2023-06-04T09:19:48;22.10;74.20
5705;DHT22;2877;48.238;11.160;2023-06-04T09:22:15;22.10;74.00
5705;DHT22;2877;48.238;11.160;2023-06-04T09:24:43;22.20;73.60
5705;DHT22;2877;48.238;11.160;2023-06-04T09:27:13;22.40;73.10
5705;DHT22;2877;48.238;11.160;2023-06-04T09:29:39;22.50;71.00
5705;DHT22;2877;48.238;11.160;2023-06-04T09:32:05;22.50;67.90
5705;DHT22;2877;48.238;11.160;2023-06-04T09:34:31;22.70;69.70
5705;DHT22;2877;48.238;11.160;2023-06-04T09:36:58;22.70;68.30
5705;DHT22;2877;48.238;11.160;2023-06-04T09:39:24;22.80;69.30
5705;DHT22;2877;48.238;11.160;2023-06-04T09:42:02;22.90;68.40
5705;DHT22;2877;48.238;11.160;2023-06-04T09:44:29;22.80;67.40
5705;DHT22;2877;48.238;11.160;2023-06-04T09:46:58;22.80;67.40
5705;DHT22;2877;48.238;11.160;2023-06-04T09:49:24;22.80;67.90
5705;DHT22;2877;48.238;11.160;2023-06-04T09:51:50;23.10;66.80
5705;DHT22;2877;48.238;11.160;2023-06-04T09:54:16;23.30;64.50
5705;DHT22;2877;48.238;11.160;2023-06-04T09:56:42;23.40;64.90
5705;DHT22;2877;48.238;11.160;2023-06-04T09:59:09;23.70;64.30
5705;DHT22;2877;48.238;11.160;2023-06-04T10:01:39;23.70;62.90
5705;DHT22;2877;48.238;11.160;2023-06-04T10:04:07;24.00;64.80
5705;DHT22;2877;48.238;11.160;2023-06-04T10:06:35;24.10;62.40
5705;DHT22;2877;48.238;11.160;2023-06-04T10:09:05;24.10;61.90
5705;DHT22;2877;48.238;11.160;2023-06-04T10:11:35;23.90;60.70
5705;DHT22;2877;48.238;11.160;2023-06-04T10:14:19;23.90;61.40
5705;DHT22;2877;48.238;11.160;2023-06-04T10:16:47;24.10;62.00
5705;DHT22;2877;48.238;11.160;2023-06-04T10:19:14;24.50;59.40
5705;DHT22;2877;48.238;11.160;2023-06-04T10:21:40;24.80;61.10
5705;DHT22;2877;48.238;11.160;2023-06-04T10:24:06;25.10;60.10
5705;DHT22;2877;48.238;11.160;2023-06-04T10:26:33;25.20;57.20
5705;DHT22;2877;48.238;11.160;2023-06-04T10:29:01;25.40;56.50
5705;DHT22;2877;48.238;11.160;2023-06-04T10:31:27;25.60;56.60
5705;DHT22;2877;48.238;11.160;2023-06-04T10:33:56;25.60;55.60
5705;DHT22;2877;48.238;11.160;2023-06-04T10:36:23;25.50;56.00
5705;DHT22;2877;48.238;11.160;2023-06-04T10:38:50;25.40;54.10
5705;DHT22;2877;48.238;11.160;2023-06-04T10:41:17;25.40;55.40
5705;DHT22;2877;48.238;11.160;2023-06-04T10:43:45;25.50;54.20
5705;DHT22;2877;48.238;11.160;2023-06-04T10:46:14;25.50;52.80
5705;DHT22;2877;48.238;11.160;2023-06-04T10:48:53;25.60;56.90
5705;DHT22;2877;48.238;11.160;2023-06-04T10:51:30;25.60;52.90
5705;DHT22;2877;48.238;11.160;2023-06-04T10:53:59;25.60;53.70
5705;DHT22;2877;48.238;11.160;2023-06-04T10:56:32;25.90;55.80
5705;DHT22;2877;48.238;11.160;2023-06-04T10:58:59;26.10;52.70
5705;DHT22;2877;48.238;11.160;2023-06-04T11:01:26;26.20;51.50
5705;DHT22;2877;48.238;11.160;2023-06-04T11:03:52;26.40;52.20
5705;DHT22;2877;48.238;11.160;2023-06-04T11:06:18;26.60;52.00
5705;DHT22;2877;48.238;11.160;2023-06-04T11:08:44;26.30;51.80
5705;DHT22;2877;48.238;11.160;2023-06-04T11:11:14;26.20;52.30
5705;DHT22;2877;48.238;11.160;2023-06-04T11:13:41;26.30;51.90
5705;DHT22;2877;48.238;11.160;2023-06-04T11:16:20;26.40;52.20
5705;DHT22;2877;48.238;11.160;2023-06-04T11:18:55;26.40;50.10
5705;DHT22;2877;48.238;11.160;2023-06-04T11:21:22;26.50;51.00
5705;DHT22;2877;48.238;11.160;2023-06-04T11:23:47;26.40;50.10
5705;DHT22;2877;48.238;11.160;2023-06-04T11:26:13;26.40;49.80
5705;DHT22;2877;48.238;11.160;2023-06-04T11:28:39;26.60;49.10
5705;DHT22;2877;48.238;11.160;2023-06-04T11:31:08;27.00;49.00
5705;DHT22;2877;48.238;11.160;2023-06-04T11:33:46;27.50;48.90
5705;DHT22;2877;48.238;11.160;2023-06-04T11:36:28;27.30;47.40
5705;DHT22;2877;48.238;11.160;2023-06-04T11:38:59;26.40;49.50
5705;DHT22;2877;48.238;11.160;2023-06-04T11:41:27;26.30;51.60
5705;DHT22;2877;48.238;11.160;2023-06-04T11:43:55;26.50;51.30
5705;DHT22;2877;48.238;11.160;2023-06-04T11:46:20;26.50;49.90
5705;DHT22;2877;48.238;11.160;2023-06-04T11:48:46;26.30;47.60
5705;DHT22;2877;48.238;11.160;2023-06-04T11:51:12;26.60;49.30
5705;DHT22;2877;48.238;11.160;2023-06-04T11:53:38;27.10;48.10
5705;DHT22;2877;48.238;11.160;2023-06-04T11:56:05;27.20;47.90
5705;DHT22;2877;48.238;11.160;2023-06-04T11:58:31;27.00;47.60
5705;DHT22;2877;48.238;11.160;2023-06-04T12:00:58;27.10;47.20
5705;DHT22;2877;48.238;11.160;2023-06-04T12:03:41;27.20;47.80
5705;DHT22;2877;48.238;11.160;2023-06-04T12:06:20;27.30;47.80
5705;DHT22;2877;48.238;11.160;2023-06-04T12:08:54;27.70;46.60
5705;DHT22;2877;48.238;11.160;2023-06-04T12:13:53;27.90;45.80
5705;DHT22;2877;48.238;11.160;2023-06-04T12:16:19;28.10;44.30
5705;DHT22;2877;48.238;11.160;2023-06-04T12:18:44;27.80;45.30
5705;DHT22;2877;48.238;11.160;2023-06-04T12:21:24;27.80;44.90
5705;DHT22;2877;48.238;11.160;2023-06-04T12:24:12;28.00;44.00
5705;DHT22;2877;48.238;11.160;2023-06-04T12:26:40;28.20;43.90
5705;DHT22;2877;48.238;11.160;2023-06-04T12:29:17;27.80;43.00
5705;DHT22;2877;48.238;11.160;2023-06-04T12:31:44;26.90;43.90
5705;DHT22;2877;48.238;11.160;2023-06-04T12:34:11;26.90;44.30
5705;DHT22;2877;48.238;11.160;2023-06-04T12:36:37;26.80;44.50
5705;DHT22;2877;48.238;11.160;2023-06-04T12:39:04;27.60;44.70
5705;DHT22;2877;48.238;11.160;2023-06-04T12:41:31;28.60;44.00
5705;DHT22;2877;48.238;11.160;2023-06-04T12:43:57;29.00;42.80
5705;DHT22;2877;48.238;11.160;2023-06-04T12:46:23;28.60;41.80
5705;DHT22;2877;48.238;11.160;2023-06-04T12:48:53;29.00;44.10
5705;DHT22;2877;48.238;11.160;2023-06-04T12:51:19;29.80;43.00
5705;DHT22;2877;48.238;11.160;2023-06-04T12:53:46;29.50;40.60
5705;DHT22;2877;48.238;11.160;2023-06-04T12:56:12;28.60;42.10
5705;DHT22;2877;48.238;11.160;2023-06-04T12:58:38;29.10;43.60
5705;DHT22;2877;48.238;11.160;2023-06-04T13:01:04;29.80;40.10
5705;DHT22;2877;48.238;11.160;2023-06-04T13:03:37;30.30;40.70
5705;DHT22;2877;48.238;11.160;2023-06-04T13:06:03;31.20;40.00
5705;DHT22;2877;48.238;11.160;2023-06-04T13:08:29;31.60;37.50
5705;DHT22;2877;48.238;11.160;2023-06-04T13:10:55;32.00;37.60
5705;DHT22;2877;48.238;11.160;2023-06-04T13:13:21;32.80;36.20
5705;DHT22;2877;48.238;11.160;2023-06-04T13:15:47;33.40;36.70
5705;DHT22;2877;48.238;11.160;2023-06-04T13:18:12;33.60;35.70
5705;DHT22;2877;48.238;11.160;2023-06-04T13:20:40;33.30;37.20
5705;DHT22;2877;48.238;11.160;2023-06-04T13:23:06;33.00;35.80
5705;DHT22;2877;48.238;11.160;2023-06-04T13:25:32;33.40;35.60
5705;DHT22;2877;48.238;11.160;2023-06-04T13:28:05;32.60;35.20
5705;DHT22;2877;48.238;11.160;2023-06-04T13:30:30;30.90;37.20
5705;DHT22;2877;48.238;11.160;2023-06-04T13:32:56;30.80;38.00
5705;DHT22;2877;48.238;11.160;2023-06-04T13:35:24;31.20;37.40
5705;DHT22;2877;48.238;11.160;2023-06-04T13:37:49;31.70;38.50
5705;DHT22;2877;48.238;11.160;2023-06-04T13:40:15;31.80;37.20
5705;DHT22;2877;48.238;11.160;2023-06-04T13:42:41;31.20;35.80
5705;DHT22;2877;48.238;11.160;2023-06-04T13:45:08;30.70;36.80
5705;DHT22;2877;48.238;11.160;2023-06-04T13:47:34;31.00;37.00
5705;DHT22;2877;48.238;11.160;2023-06-04T13:49:59;31.40;36.70
5705;DHT22;2877;48.238;11.160;2023-06-04T13:52:25;30.90;37.50
5705;DHT22;2877;48.238;11.160;2023-06-04T13:54:53;30.70;38.10
5705;DHT22;2877;48.238;11.160;2023-06-04T13:57:19;30.60;39.00
5705;DHT22;2877;48.238;11.160;2023-06-04T13:59:45;30.00;39.00
5705;DHT22;2877;48.238;11.160;2023-06-04T14:02:10;29.00;40.40
5705;DHT22;2877;48.238;11.160;2023-06-04T14:04:36;28.20;41.20
5705;DHT22;2877;48.238;11.160;2023-06-04T14:07:01;27.70;43.00
5705;DHT22;2877;48.238;11.160;2023-06-04T14:09:27;27.40;42.30
5705;DHT22;2877;48.238;11.160;2023-06-04T14:11:53;27.10;43.80
5705;DHT22;2877;48.238;11.160;2023-06-04T14:14:20;27.20;43.30
5705;DHT22;2877;48.238;11.160;2023-06-04T14:16:49;27.40;44.80
5705;DHT22;2877;48.238;11.160;2023-06-04T14:19:15;27.20;43.20
5705;DHT22;2877;48.238;11.160;2023-06-04T14:21:44;27.10;43.40
5705;DHT22;2877;48.238;11.160;2023-06-04T14:24:10;27.30;44.90
5705;DHT22;2877;48.238;11.160;2023-06-04T14:26:36;27.50;44.40
5705;DHT22;2877;48.238;11.160;2023-06-04T14:29:02;27.30;44.10
5705;DHT22;2877;48.238;11.160;2023-06-04T14:31:27;26.80;44.00
5705;DHT22;2877;48.238;11.160;2023-06-04T14:33:53;26.20;44.20
5705;DHT22;2877;48.238;11.160;2023-06-04T14:36:19;25.90;46.90
5705;DHT22;2877;48.238;11.160;2023-06-04T14:38:44;26.00;46.70
5705;DHT22;2877;48.238;11.160;2023-06-04T14:41:11;25.90;46.50
5705;DHT22;2877;48.238;11.160;2023-06-04T14:43:37;25.70;46.40
5705;DHT22;2877;48.238;11.160;2023-06-04T14:46:03;25.70;47.00
5705;DHT22;2877;48.238;11.160;2023-06-04T14:48:29;25.70;47.30
5705;DHT22;2877;48.238;11.160;2023-06-04T14:50:55;25.80;47.00
5705;DHT22;2877;48.238;11.160;2023-06-04T14:53:21;26.20;47.10
5705;DHT22;2877;48.238;11.160;2023-06-04T14:55:47;26.20;45.20
5705;DHT22;2877;48.238;11.160;2023-06-04T14:58:13;26.10;46.00
5705;DHT22;2877;48.238;11.160;2023-06-04T15:00:38;26.00;45.80
5705;DHT22;2877;48.238;11.160;2023-06-04T15:03:04;26.00;45.50
5705;DHT22;2877;48.238;11.160;2023-06-04T15:05:31;26.20;46.30
5705;DHT22;2877;48.238;11.160;2023-06-04T15:07:57;26.10;46.20
5705;DHT22;2877;48.238;11.160;2023-06-04T15:10:24;26.10;46.40
5705;DHT22;2877;48.238;11.160;2023-06-04T15:12:50;25.80;46.60
5705;DHT22;2877;48.238;11.160;2023-06-04T15:15:15;25.80;47.00
5705;DHT22;2877;48.238;11.160;2023-06-04T15:17:41;25.80;45.70
5705;DHT22;2877;48.238;11.160;2023-06-04T15:20:07;25.80;47.20
5705;DHT22;2877;48.238;11.160;2023-06-04T15:22:33;25.80;46.50
5705;DHT22;2877;48.238;11.160;2023-06-04T15:24:59;25.60;47.20
5705;DHT22;2877;48.238;11.160;2023-06-04T15:27:25;25.30;47.00
5705;DHT22;2877;48.238;11.160;2023-06-04T15:29:50;25.20;47.80
5705;DHT22;2877;48.238;11.160;2023-06-04T15:32:17;25.10;48.10
5705;DHT22;2877;48.238;11.160;2023-06-04T15:34:43;24.80;47.70
5705;DHT22;2877;48.238;11.160;2023-06-04T15:37:08;24.50;49.30
5705;DHT22;2877;48.238;11.160;2023-06-04T15:39:34;24.40;49.50
5705;DHT22;2877;48.238;11.160;2023-06-04T15:41:59;24.60;49.40
5705;DHT22;2877;48.238;11.160;2023-06-04T15:44:25;24.60;47.70
5705;DHT22;2877;48.238;11.160;2023-06-04T15:46:51;24.50;48.30
5705;DHT22;2877;48.238;11.160;2023-06-04T15:49:17;24.60;47.50
5705;DHT22;2877;48.238;11.160;2023-06-04T15:51:43;24.80;48.10
5705;DHT22;2877;48.238;11.160;2023-06-04T15:54:09;25.10;47.70